PWSweather.com
Personal Weather Stations
Station Observations
SHAHALMS1
Eftra, Falkenberg, HA

EftraFalkenberg, HA

Lat: 56.85, Lon: 12.65

Elevation: 140

Station Type:

http://hem.passagen.se/risarp101

High Low Average
Temperature 63.7°F17.6°C 42.4°F5.8°C 51.9°F11.1°C
Dew Point 47.1°F8.4°C 24.2°F-4.3°C 37.9°F3.3°C
Winds 14.3 mph 23.0 kmh Calm Calm 4.0 mph E6.4 kmh E
Wind Gusts 28.6 mph46.0 kmh -- 9.0 mph14.5 kmh
Humidity 83% 38% 60%
Pressure 29.98 in1015.2 mb 29.86 in1011.2 mb -
Precipitation 0.14 in3.6 mm - -
Hour Temp Dew Point Humidity Winds Wind Gusts Pressure Precip Precip Rate Daily Precip Total
12:00 AM 48.7°F9.3°C 24.2°F-4.3°C 38% 14.3 mph E23.0 kmh E 28.6 mph46.0 kmh 29.89 in1012.2 mb 0.00 in0.0 mm 0.00 in0.0 mm 0.00 in0.0 mm
01:15 AM 44.8°F7.1°C 27.3°F-2.6°C 50% 9.9 mph E15.9 kmh E 17.5 mph28.2 kmh 29.89 in1012.2 mb 0.00 in0.0 mm 0.00 in0.0 mm 0.00 in0.0 mm
01:30 AM 44.6°F7.0°C 27.6°F-2.4°C 51% 7.2 mph E11.6 kmh E 12.9 mph20.8 kmh 29.89 in1012.2 mb 0.00 in0.0 mm 0.00 in0.0 mm 0.00 in0.0 mm
01:45 AM 44.4°F6.9°C 27.9°F-2.3°C 52% 8.1 mph E13.0 kmh E 16.1 mph25.9 kmh 29.86 in1011.2 mb 0.00 in0.0 mm 0.00 in0.0 mm 0.00 in0.0 mm
02:00 AM 44.6°F7.0°C 28.0°F-2.2°C 52% 7.9 mph E12.7 kmh E 14.0 mph22.5 kmh 29.89 in1012.2 mb 0.00 in0.0 mm 0.00 in0.0 mm 0.00 in0.0 mm
02:15 AM 44.8°F7.1°C 28.2°F-2.1°C 52% 4.9 mph ENE7.9 kmh ENE 14.0 mph22.5 kmh 29.86 in1011.2 mb 0.00 in0.0 mm 0.00 in0.0 mm 0.00 in0.0 mm
02:30 AM 45.1°F7.3°C 29.0°F-1.7°C 53% 6.6 mph E10.6 kmh E 12.2 mph19.6 kmh 29.86 in1011.2 mb 0.00 in0.0 mm 0.00 in0.0 mm 0.00 in0.0 mm
02:45 AM 45.1°F7.3°C 28.5°F-1.9°C 52% 3.9 mph NE6.3 kmh NE 9.3 mph15.0 kmh 29.86 in1011.2 mb 0.00 in0.0 mm 0.00 in0.0 mm 0.00 in0.0 mm
03:00 AM 45.0°F7.2°C 28.8°F-1.8°C 53% 6.9 mph ENE11.1 kmh ENE 14.3 mph23.0 kmh 29.86 in1011.2 mb 0.00 in0.0 mm 0.00 in0.0 mm 0.00 in0.0 mm
03:15 AM 44.8°F7.1°C 28.7°F-1.8°C 53% 7.4 mph E11.9 kmh E 13.6 mph21.9 kmh 29.89 in1012.2 mb 0.00 in0.0 mm 0.00 in0.0 mm 0.00 in0.0 mm
03:30 AM 45.0°F7.2°C 29.3°F-1.5°C 54% 7.4 mph E11.9 kmh E 12.5 mph20.1 kmh 29.89 in1012.2 mb 0.00 in0.0 mm 0.00 in0.0 mm 0.00 in0.0 mm
03:45 AM 44.2°F6.8°C 32.8°F0.4°C 64% 10.0 mph E16.1 kmh E 15.7 mph25.3 kmh 29.89 in1012.2 mb 0.00 in0.0 mm 0.00 in0.0 mm 0.00 in0.0 mm
04:00 AM 43.7°F6.5°C 34.2°F1.2°C 69% 9.3 mph E15.0 kmh E 15.7 mph25.3 kmh 29.89 in1012.2 mb 0.00 in0.0 mm 0.00 in0.0 mm 0.00 in0.0 mm
04:15 AM 43.3°F6.3°C 34.2°F1.2°C 70% 8.1 mph E13.0 kmh E 14.0 mph22.5 kmh 29.89 in1012.2 mb 0.00 in0.0 mm 0.00 in0.0 mm 0.00 in0.0 mm
04:30 AM 43.5°F6.4°C 34.0°F1.1°C 69% 9.8 mph E15.8 kmh E 14.0 mph22.5 kmh 29.89 in1012.2 mb 0.00 in0.0 mm 0.00 in0.0 mm 0.00 in0.0 mm
04:45 AM 43.0°F6.1°C 34.9°F1.6°C 73% 8.9 mph E14.3 kmh E 16.5 mph26.6 kmh 29.89 in1012.2 mb 0.05 in1.3 mm 0.20 in5.1 mm 0.04 in1.0 mm
05:00 AM 43.2°F6.2°C 34.7°F1.5°C 72% 11.1 mph E17.9 kmh E 17.5 mph28.2 kmh 29.89 in1012.2 mb 0.05 in1.3 mm 0.00 in0.0 mm 0.04 in1.0 mm
05:15 AM 43.3°F6.3°C 34.2°F1.2°C 70% 9.8 mph E15.8 kmh E 16.1 mph25.9 kmh 29.89 in1012.2 mb 0.05 in1.3 mm 0.00 in0.0 mm 0.04 in1.0 mm
05:30 AM 43.5°F6.4°C 33.7°F0.9°C 68% 10.5 mph E16.9 kmh E 16.8 mph27.0 kmh 29.89 in1012.2 mb 0.05 in1.3 mm 0.00 in0.0 mm 0.04 in1.0 mm
05:45 AM 43.3°F6.3°C 34.6°F1.4°C 71% 11.4 mph E18.3 kmh E 19.7 mph31.7 kmh 29.86 in1011.2 mb 0.00 in0.0 mm 0.00 in0.0 mm 0.04 in1.0 mm
06:00 AM 43.0°F6.1°C 35.3°F1.8°C 74% 10.1 mph E16.3 kmh E 21.5 mph34.6 kmh 29.89 in1012.2 mb 0.05 in1.3 mm 0.07 in1.8 mm 0.09 in2.3 mm
06:15 AM 42.6°F5.9°C 35.6°F2.0°C 76% 6.9 mph ESE11.1 kmh ESE 14.3 mph23.0 kmh 29.92 in1013.2 mb 0.05 in1.3 mm 0.00 in0.0 mm 0.09 in2.3 mm
06:30 AM 42.4°F5.8°C 35.4°F1.9°C 76% 2.2 mph S3.5 kmh S 6.8 mph10.9 kmh 29.92 in1013.2 mb 0.05 in1.3 mm 0.00 in0.0 mm 0.09 in2.3 mm
06:45 AM 42.4°F5.8°C 36.1°F2.3°C 78% 0.3 mph SSE0.5 kmh SSE 4.7 mph7.6 kmh 29.95 in1014.2 mb 0.05 in1.3 mm 0.00 in0.0 mm 0.09 in2.3 mm
07:00 AM 42.4°F5.8°C 36.1°F2.3°C 78% 0.2 mph S0.3 kmh S 3.9 mph6.3 kmh 29.92 in1013.2 mb 0.00 in0.0 mm 0.00 in0.0 mm 0.09 in2.3 mm
07:15 AM 42.6°F5.9°C 36.9°F2.7°C 80% 1.9 mph E3.1 kmh E 7.2 mph11.6 kmh 29.95 in1014.2 mb 0.00 in0.0 mm 0.00 in0.0 mm 0.09 in2.3 mm
07:30 AM 42.8°F6.0°C 38.0°F3.3°C 83% 5.5 mph E8.9 kmh E 12.9 mph20.8 kmh 29.95 in1014.2 mb 0.00 in0.0 mm 0.00 in0.0 mm 0.09 in2.3 mm
07:45 AM 43.0°F6.1°C 38.2°F3.4°C 83% 6.5 mph E10.5 kmh E 15.7 mph25.3 kmh 29.95 in1014.2 mb 0.00 in0.0 mm 0.00 in0.0 mm 0.09 in2.3 mm
08:00 AM 43.5°F6.4°C 36.8°F2.7°C 77% 11.0 mph E17.7 kmh E 17.9 mph28.8 kmh 29.92 in1013.2 mb 0.00 in0.0 mm 0.00 in0.0 mm 0.09 in2.3 mm
08:31 AM 44.6°F7.0°C 38.2°F3.4°C 78% 7.7 mph E12.4 kmh E 14.0 mph22.5 kmh 29.95 in1014.2 mb 0.00 in0.0 mm 0.00 in0.0 mm 0.09 in2.3 mm
08:45 AM 45.0°F7.2°C 38.2°F3.4°C 77% 2.4 mph NE3.9 kmh NE 7.5 mph12.1 kmh 29.98 in1015.2 mb 0.00 in0.0 mm 0.00 in0.0 mm 0.09 in2.3 mm
09:00 AM 45.9°F7.7°C 37.7°F3.2°C 73% 1.3 mph NNE2.1 kmh NNE 6.4 mph10.3 kmh 29.98 in1015.2 mb 0.00 in0.0 mm 0.00 in0.0 mm 0.09 in2.3 mm
09:15 AM 46.6°F8.1°C 37.7°F3.2°C 71% 5.2 mph N8.4 kmh N 10.4 mph16.7 kmh 29.95 in1014.2 mb 0.00 in0.0 mm 0.00 in0.0 mm 0.09 in2.3 mm
09:30 AM 47.3°F8.5°C 37.6°F3.1°C 69% 6.4 mph N10.3 kmh N 11.8 mph19.0 kmh 29.95 in1014.2 mb 0.00 in0.0 mm 0.00 in0.0 mm 0.09 in2.3 mm
09:45 AM 48.6°F9.2°C 37.7°F3.2°C 66% 6.6 mph N10.6 kmh N 11.5 mph18.5 kmh 29.95 in1014.2 mb 0.00 in0.0 mm 0.00 in0.0 mm 0.09 in2.3 mm
10:00 AM 49.8°F9.9°C 39.3°F4.1°C 67% 5.0 mph N8.0 kmh N 12.5 mph20.1 kmh 29.95 in1014.2 mb 0.00 in0.0 mm 0.00 in0.0 mm 0.09 in2.3 mm
10:15 AM 50.9°F10.5°C 39.1°F3.9°C 64% 3.6 mph NNE5.8 kmh NNE 9.7 mph15.6 kmh 29.95 in1014.2 mb 0.00 in0.0 mm 0.00 in0.0 mm 0.09 in2.3 mm
10:30 AM 51.6°F10.9°C 39.8°F4.3°C 64% 3.6 mph NNE5.8 kmh NNE 7.5 mph12.1 kmh 29.98 in1015.2 mb 0.00 in0.0 mm 0.00 in0.0 mm 0.09 in2.3 mm
10:45 AM 52.5°F11.4°C 40.7°F4.8°C 64% 0.6 mph NNE1.0 kmh NNE 4.7 mph7.6 kmh 29.95 in1014.2 mb 0.00 in0.0 mm 0.00 in0.0 mm 0.09 in2.3 mm
11:00 AM 52.7°F11.5°C 40.5°F4.7°C 63% 3.3 mph N5.3 kmh N 9.3 mph15.0 kmh 29.95 in1014.2 mb 0.00 in0.0 mm 0.00 in0.0 mm 0.09 in2.3 mm
11:15 AM 53.4°F11.9°C 40.7°F4.8°C 62% 1.1 mph NNE1.8 kmh NNE 6.1 mph9.8 kmh 29.95 in1014.2 mb 0.00 in0.0 mm 0.00 in0.0 mm 0.09 in2.3 mm
11:30 AM 54.1°F12.3°C 41.8°F5.4°C 63% 1.0 mph N1.6 kmh N 6.8 mph10.9 kmh 29.92 in1013.2 mb 0.00 in0.0 mm 0.00 in0.0 mm 0.09 in2.3 mm
11:45 AM 55.0°F12.8°C 42.7°F5.9°C 63% Calm Calm 1.4 mph2.3 kmh 29.92 in1013.2 mb 0.00 in0.0 mm 0.00 in0.0 mm 0.09 in2.3 mm
12:00 PM 55.9°F13.3°C 43.5°F6.4°C 63% 0.5 mph N0.8 kmh N 5.0 mph8.0 kmh 29.92 in1013.2 mb 0.00 in0.0 mm 0.00 in0.0 mm 0.09 in2.3 mm
12:15 PM 56.7°F13.7°C 43.8°F6.6°C 62% Calm Calm -- 29.92 in1013.2 mb 0.00 in0.0 mm 0.00 in0.0 mm 0.09 in2.3 mm
12:30 PM 57.0°F13.9°C 44.5°F6.9°C 63% Calm Calm -- 29.92 in1013.2 mb 0.00 in0.0 mm 0.00 in0.0 mm 0.09 in2.3 mm
12:45 PM 57.7°F14.3°C 45.6°F7.6°C 64% 0.1 mph W0.2 kmh W 2.5 mph4.0 kmh 29.92 in1013.2 mb 0.05 in1.3 mm 0.20 in5.1 mm 0.14 in3.6 mm
01:00 PM 59.7°F15.4°C 47.1°F8.4°C 63% 1.1 mph NW1.8 kmh NW 6.4 mph10.3 kmh 29.92 in1013.2 mb 0.05 in1.3 mm 0.00 in0.0 mm 0.14 in3.6 mm
01:15 PM 61.0°F16.1°C 47.0°F8.3°C 60% 4.3 mph NNW6.9 kmh NNW 8.9 mph14.3 kmh 29.92 in1013.2 mb 0.05 in1.3 mm 0.00 in0.0 mm 0.14 in3.6 mm
01:30 PM 61.7°F16.5°C 46.3°F7.9°C 57% Calm Calm -- 29.89 in1012.2 mb 0.05 in1.3 mm 0.00 in0.0 mm 0.14 in3.6 mm
01:45 PM 62.2°F16.8°C 46.3°F7.9°C 56% Calm Calm -- 29.92 in1013.2 mb 0.00 in0.0 mm 0.00 in0.0 mm 0.14 in3.6 mm
02:00 PM 62.4°F16.9°C 46.0°F7.8°C 55% 0.9 mph NW1.4 kmh NW 6.1 mph9.8 kmh 29.89 in1012.2 mb 0.00 in0.0 mm 0.00 in0.0 mm 0.14 in3.6 mm
02:15 PM 62.4°F16.9°C 46.0°F7.8°C 55% 1.0 mph NW1.6 kmh NW 5.7 mph9.2 kmh 29.89 in1012.2 mb 0.00 in0.0 mm 0.00 in0.0 mm 0.14 in3.6 mm
02:30 PM 62.2°F16.8°C 45.9°F7.7°C 55% 3.7 mph N6.0 kmh N 6.8 mph10.9 kmh 29.89 in1012.2 mb 0.00 in0.0 mm 0.00 in0.0 mm 0.14 in3.6 mm
02:45 PM 62.4°F16.9°C 46.0°F7.8°C 55% 3.8 mph N6.1 kmh N 6.8 mph10.9 kmh 29.89 in1012.2 mb 0.00 in0.0 mm 0.00 in0.0 mm 0.14 in3.6 mm
03:00 PM 63.5°F17.5°C 46.6°F8.1°C 54% 0.1 mph N0.2 kmh N 4.3 mph6.9 kmh 29.89 in1012.2 mb 0.00 in0.0 mm 0.00 in0.0 mm 0.14 in3.6 mm
03:15 PM 63.7°F17.6°C 45.7°F7.6°C 52% 0.5 mph N0.8 kmh N 5.4 mph8.7 kmh 29.89 in1012.2 mb 0.00 in0.0 mm 0.00 in0.0 mm 0.14 in3.6 mm
03:30 PM 63.3°F17.4°C 45.4°F7.4°C 52% 0.6 mph N1.0 kmh N 6.1 mph9.8 kmh 29.89 in1012.2 mb 0.00 in0.0 mm 0.00 in0.0 mm 0.14 in3.6 mm
03:45 PM 62.8°F17.1°C 44.9°F7.2°C 52% 0.8 mph N1.3 kmh N 6.8 mph10.9 kmh 29.89 in1012.2 mb 0.00 in0.0 mm 0.00 in0.0 mm 0.14 in3.6 mm
04:00 PM 62.2°F16.8°C 44.9°F7.2°C 53% 1.2 mph N1.9 kmh N 6.8 mph10.9 kmh 29.89 in1012.2 mb 0.00 in0.0 mm 0.00 in0.0 mm 0.14 in3.6 mm
04:31 PM 61.0°F16.1°C 43.7°F6.5°C 53% 0.2 mph NE0.3 kmh NE 3.6 mph5.8 kmh 29.89 in1012.2 mb 0.00 in0.0 mm 0.00 in0.0 mm 0.14 in3.6 mm
04:45 PM 60.4°F15.8°C 43.7°F6.5°C 54% Calm Calm 2.1 mph3.4 kmh 29.89 in1012.2 mb 0.00 in0.0 mm 0.00 in0.0 mm 0.14 in3.6 mm
05:00 PM 59.7°F15.4°C 43.5°F6.4°C 55% Calm Calm -- 29.89 in1012.2 mb 0.00 in0.0 mm 0.00 in0.0 mm 0.14 in3.6 mm
05:15 PM 59.5°F15.3°C 44.7°F7.1°C 58% 0.2 mph S0.3 kmh S 3.9 mph6.3 kmh 29.89 in1012.2 mb 0.00 in0.0 mm 0.00 in0.0 mm 0.14 in3.6 mm
05:30 PM 59.7°F15.4°C 44.0°F6.7°C 56% 2.3 mph S3.7 kmh S 5.7 mph9.2 kmh 29.89 in1012.2 mb 0.00 in0.0 mm 0.00 in0.0 mm 0.14 in3.6 mm
05:45 PM 59.5°F15.3°C 42.4°F5.8°C 53% 3.9 mph S6.3 kmh S 9.7 mph15.6 kmh 29.86 in1011.2 mb 0.00 in0.0 mm 0.00 in0.0 mm 0.14 in3.6 mm
06:00 PM 59.0°F15.0°C 41.4°F5.2°C 52% 0.7 mph S1.1 kmh S 6.8 mph10.9 kmh 29.89 in1012.2 mb 0.00 in0.0 mm 0.00 in0.0 mm 0.14 in3.6 mm
06:15 PM 57.7°F14.3°C 40.2°F4.6°C 52% 1.4 mph SSE2.3 kmh SSE 6.8 mph10.9 kmh 29.89 in1012.2 mb 0.00 in0.0 mm 0.00 in0.0 mm 0.14 in3.6 mm
06:30 PM 57.2°F14.0°C 39.7°F4.3°C 52% 1.7 mph SSE2.7 kmh SSE 7.9 mph12.7 kmh 29.89 in1012.2 mb 0.00 in0.0 mm 0.00 in0.0 mm 0.14 in3.6 mm
06:45 PM 56.5°F13.6°C 39.1°F3.9°C 52% 0.9 mph S1.4 kmh S 6.1 mph9.8 kmh 29.89 in1012.2 mb 0.00 in0.0 mm 0.00 in0.0 mm 0.14 in3.6 mm
07:00 PM 56.1°F13.4°C 38.7°F3.7°C 52% 0.3 mph SE0.5 kmh SE 3.9 mph6.3 kmh 29.92 in1013.2 mb 0.00 in0.0 mm 0.00 in0.0 mm 0.14 in3.6 mm
07:15 PM 55.6°F13.1°C 38.2°F3.4°C 52% Calm Calm 1.4 mph2.3 kmh 29.92 in1013.2 mb 0.00 in0.0 mm 0.00 in0.0 mm 0.14 in3.6 mm
07:30 PM 55.0°F12.8°C 38.2°F3.4°C 53% Calm Calm -- 29.92 in1013.2 mb 0.00 in0.0 mm 0.00 in0.0 mm 0.14 in3.6 mm
07:45 PM 54.9°F12.7°C 37.6°F3.1°C 52% Calm Calm -- 29.92 in1013.2 mb 0.00 in0.0 mm 0.00 in0.0 mm 0.14 in3.6 mm
08:00 PM 54.5°F12.5°C 37.7°F3.2°C 53% 1.6 mph SSE2.6 kmh SSE 6.8 mph10.9 kmh 29.92 in1013.2 mb 0.00 in0.0 mm 0.00 in0.0 mm 0.14 in3.6 mm
08:15 PM 54.7°F12.6°C 36.9°F2.7°C 51% 1.1 mph SE1.8 kmh SE 8.9 mph14.3 kmh 29.92 in1013.2 mb 0.00 in0.0 mm 0.00 in0.0 mm 0.14 in3.6 mm
08:30 PM 54.7°F12.6°C 36.9°F2.7°C 51% 1.8 mph ESE2.9 kmh ESE 6.8 mph10.9 kmh 29.92 in1013.2 mb 0.00 in0.0 mm 0.00 in0.0 mm 0.14 in3.6 mm
08:45 PM 54.3°F12.4°C 36.6°F2.6°C 51% 2.7 mph SE4.3 kmh SE 9.7 mph15.6 kmh 29.92 in1013.2 mb 0.00 in0.0 mm 0.00 in0.0 mm 0.14 in3.6 mm
09:00 PM 54.3°F12.4°C 36.6°F2.6°C 51% 4.5 mph SE7.2 kmh SE 9.7 mph15.6 kmh 29.92 in1013.2 mb 0.00 in0.0 mm 0.00 in0.0 mm 0.14 in3.6 mm
09:15 PM 54.1°F12.3°C 35.9°F2.2°C 50% 4.6 mph SE7.4 kmh SE 10.4 mph16.7 kmh 29.89 in1012.2 mb 0.00 in0.0 mm 0.00 in0.0 mm 0.14 in3.6 mm
09:30 PM 53.6°F12.0°C 35.9°F2.2°C 51% 2.2 mph E3.5 kmh E 9.3 mph15.0 kmh 29.92 in1013.2 mb 0.00 in0.0 mm 0.00 in0.0 mm 0.14 in3.6 mm
09:45 PM 53.2°F11.8°C 35.6°F2.0°C 51% 0.7 mph E1.1 kmh E 6.4 mph10.3 kmh 29.89 in1012.2 mb 0.00 in0.0 mm 0.00 in0.0 mm 0.14 in3.6 mm
10:00 PM 53.1°F11.7°C 35.4°F1.9°C 51% 3.5 mph ESE5.6 kmh ESE 10.4 mph16.7 kmh 29.89 in1012.2 mb 0.00 in0.0 mm 0.00 in0.0 mm 0.14 in3.6 mm
10:15 PM 52.7°F11.5°C 35.1°F1.7°C 51% 1.4 mph E2.3 kmh E 8.6 mph13.8 kmh 29.89 in1012.2 mb 0.00 in0.0 mm 0.00 in0.0 mm 0.14 in3.6 mm
10:30 PM 52.3°F11.3°C 34.7°F1.5°C 51% 2.1 mph E3.4 kmh E 8.9 mph14.3 kmh 29.89 in1012.2 mb 0.00 in0.0 mm 0.00 in0.0 mm 0.14 in3.6 mm
10:45 PM 51.6°F10.9°C 34.6°F1.4°C 52% 0.9 mph E1.4 kmh E 7.5 mph12.1 kmh 29.89 in1012.2 mb 0.00 in0.0 mm 0.00 in0.0 mm 0.14 in3.6 mm
11:00 PM 51.3°F10.7°C 34.7°F1.5°C 53% 1.1 mph E1.8 kmh E 8.6 mph13.8 kmh 29.89 in1012.2 mb 0.00 in0.0 mm 0.00 in0.0 mm 0.15 in3.8 mm
11:15 PM 51.3°F10.7°C 34.2°F1.2°C 52% 6.4 mph ESE10.3 kmh ESE 12.9 mph20.8 kmh 29.89 in1012.2 mb 0.00 in0.0 mm 0.00 in0.0 mm 0.15 in3.8 mm
11:30 PM 51.3°F10.7°C 34.2°F1.2°C 52% 7.6 mph SE12.2 kmh SE 15.7 mph25.3 kmh 29.86 in1011.2 mb 0.00 in0.0 mm 0.00 in0.0 mm 0.15 in3.8 mm
11:45 PM 50.9°F10.5°C 33.9°F1.1°C 52% 5.4 mph SE8.7 kmh SE 11.5 mph18.5 kmh 29.89 in1012.2 mb 0.00 in0.0 mm 0.00 in0.0 mm 0.15 in3.8 mm